TAF Text Data
IDs:
Format:
Raw Decoded Include METAR

Data at: 2305 UTC 26 Feb 2020

KMKT 261724Z 2618/2718 32010KT P6SM SKC
  FM262100 31008KT P6SM BKN050
  FM270600 30004KT P6SM SCT025 OVC040
  FM270900 31005KT P6SM BKN025 OVC040